TimeEDT,TemperatureF,Dew PointF,Humidity,Sea Level PressureIn,VisibilityMPH,Wind Direction,Wind SpeedMPH,Gust SpeedMPH,PrecipitationIn,Events,Conditions,WindDirDegrees,DateUTC
12:05 AM,69.8,66.2,88,30.00,10.0,WSW,5.8,-,N/A,,Overcast,250,2013-09-03 04:05:00
12:15 AM,69.3,66.2,90,30.00,10.0,WSW,8.1,-,N/A,,Overcast,250,2013-09-03 04:15:00
12:26 AM,69.8,66.2,88,29.99,10.0,SE,4.6,-,N/A,,Mostly Cloudy,130,2013-09-03 04:26:00
12:35 AM,68.4,66.4,93,29.99,1.5,SE,3.5,-,N/A,,Mostly Cloudy,130,2013-09-03 04:35:00
12:46 AM,68.0,66.2,94,29.98,0.2,SE,4.6,-,N/A,Fog,Fog,140,2013-09-03 04:46:00
12:55 AM,68.0,66.2,94,29.99,0.2,SSW,3.5,-,N/A,Fog,Fog,200,2013-09-03 04:55:00
1:15 AM,69.6,67.1,92,29.97,10.0,SW,4.6,-,N/A,Rain,Light Rain,220,2013-09-03 05:15:00
1:35 AM,69.6,66.6,90,29.96,10.0,Calm,Calm,-,N/A,,Mostly Cloudy,0,2013-09-03 05:35:00
1:55 AM,70.2,68.0,93,29.93,7.0,Calm,Calm,-,N/A,Rain,Light Rain,0,2013-09-03 05:55:00
2:15 AM,68.4,66.4,93,29.95,0.2,North,3.5,-,0.01,Rain,Light Rain,360,2013-09-03 06:15:00
2:35 AM,68.5,66.7,94,29.96,3.0,Calm,Calm,-,0.01,Rain,Light Rain,0,2013-09-03 06:35:00
2:55 AM,68.9,67.1,94,29.97,5.0,Calm,Calm,-,0.01,,Mostly Cloudy,0,2013-09-03 06:55:00
3:06 AM,69.8,66.2,88,29.97,0.5,SSW,3.5,-,N/A,Fog,Fog,200,2013-09-03 07:06:00
3:15 AM,68.5,66.7,94,29.97,0.8,SSW,3.5,-,N/A,,Overcast,200,2013-09-03 07:15:00
3:26 AM,69.8,66.2,88,29.97,5.0,SSW,5.8,-,N/A,,Scattered Clouds,210,2013-09-03 07:26:00
3:35 AM,68.5,66.6,93,29.96,5.0,Calm,Calm,-,N/A,Thunderstorm,Scattered Clouds,0,2013-09-03 07:35:00
3:55 AM,68.0,66.4,95,29.96,0.5,WNW,3.5,-,N/A,Fog,Fog,300,2013-09-03 07:55:00
4:15 AM,68.0,66.4,95,29.97,1.5,WSW,6.9,-,N/A,,Overcast,250,2013-09-03 08:15:00
4:26 AM,68.0,66.2,94,29.97,10.0,WSW,3.5,-,N/A,,Overcast,250,2013-09-03 08:26:00
4:35 AM,68.0,65.5,92,29.96,10.0,West,3.5,-,N/A,,Overcast,270,2013-09-03 08:35:00
4:55 AM,67.6,65.3,92,29.96,7.0,Calm,Calm,-,N/A,,Mostly Cloudy,0,2013-09-03 08:55:00
5:15 AM,67.6,65.3,92,29.97,7.0,Calm,Calm,-,N/A,,Mostly Cloudy,0,2013-09-03 09:15:00
5:35 AM,67.5,65.1,92,29.97,10.0,WSW,4.6,-,N/A,,Overcast,240,2013-09-03 09:35:00
5:55 AM,67.6,64.9,91,29.97,10.0,WSW,5.8,-,N/A,,Overcast,250,2013-09-03 09:55:00
6:05 AM,68.0,64.4,88,29.98,10.0,West,5.8,-,N/A,,Overcast,260,2013-09-03 10:05:00
6:15 AM,67.5,65.1,92,29.98,10.0,WSW,5.8,-,N/A,,Overcast,250,2013-09-03 10:15:00
6:25 AM,68.0,64.4,88,29.98,10.0,WSW,5.8,-,N/A,,Overcast,240,2013-09-03 10:25:00
6:35 AM,67.5,65.3,93,29.98,7.0,WSW,4.6,-,N/A,,Overcast,250,2013-09-03 10:35:00
6:55 AM,68.0,65.3,91,29.99,10.0,Calm,Calm,-,N/A,,Overcast,0,2013-09-03 10:55:00
7:05 AM,68.0,64.4,88,30.00,7.0,SW,3.5,-,N/A,,Overcast,230,2013-09-03 11:05:00
7:15 AM,67.8,65.3,92,30.00,7.0,Calm,Calm,-,N/A,,Overcast,0,2013-09-03 11:15:00
7:35 AM,68.0,65.7,92,30.00,5.0,Calm,Calm,-,N/A,,Overcast,0,2013-09-03 11:35:00
7:55 AM,68.0,65.5,92,30.00,7.0,Calm,Calm,-,N/A,,Overcast,0,2013-09-03 11:55:00
8:15 AM,68.2,65.8,92,30.01,5.0,Calm,Calm,-,N/A,,Overcast,0,2013-09-03 12:15:00
8:35 AM,68.2,65.8,92,30.02,7.0,Calm,Calm,-,N/A,,Overcast,0,2013-09-03 12:35:00
8:55 AM,68.4,66.2,93,30.03,5.0,WNW,3.5,-,N/A,,Overcast,290,2013-09-03 12:55:00
9:15 AM,68.2,66.2,93,30.03,0.8,WNW,3.5,-,N/A,Rain,Light Rain,290,2013-09-03 13:15:00
9:35 AM,68.5,67.1,95,30.03,0.2,West,3.5,-,N/A,Fog,Fog,280,2013-09-03 13:35:00
9:55 AM,68.4,66.7,95,30.03,0.2,WNW,3.5,-,N/A,Fog,Fog,300,2013-09-03 13:55:00
10:15 AM,68.4,66.7,95,30.04,0.2,NW,3.5,-,N/A,Fog,Fog,320,2013-09-03 14:15:00
10:35 AM,68.7,67.1,95,30.05,0.8,WNW,5.8,-,N/A,,Overcast,290,2013-09-03 14:35:00
10:55 AM,68.9,67.1,94,30.05,3.0,WNW,4.6,-,N/A,,Overcast,290,2013-09-03 14:55:00
11:15 AM,69.6,67.5,93,30.05,4.0,WNW,4.6,-,N/A,Rain,Light Rain,300,2013-09-03 15:15:00
11:35 AM,71.8,67.5,86,30.05,10.0,West,5.8,-,N/A,,Overcast,280,2013-09-03 15:35:00
11:55 AM,73.4,66.9,80,30.05,10.0,NNW,8.1,-,N/A,,Overcast,330,2013-09-03 15:55:00
12:15 PM,74.5,65.7,74,30.05,10.0,NNW,9.2,-,N/A,,Mostly Cloudy,340,2013-09-03 16:15:00
12:35 PM,75.4,64.8,69,30.05,10.0,NW,6.9,-,N/A,,Scattered Clouds,320,2013-09-03 16:35:00
12:55 PM,76.1,64.8,68,30.05,10.0,NW,6.9,-,N/A,,Scattered Clouds,310,2013-09-03 16:55:00
1:15 PM,75.6,62.6,64,30.05,10.0,NW,9.2,-,N/A,,Scattered Clouds,320,2013-09-03 17:15:00
1:35 PM,75.4,62.1,63,30.05,10.0,NW,10.4,16.1,N/A,,Mostly Cloudy,320,2013-09-03 17:35:00
1:55 PM,76.5,60.8,58,30.05,10.0,WNW,8.1,16.1,N/A,,Scattered Clouds,300,2013-09-03 17:55:00
2:15 PM,77.7,60.8,56,30.05,10.0,NNW,9.2,-,N/A,,Scattered Clouds,330,2013-09-03 18:15:00
2:35 PM,76.5,60.1,57,30.04,10.0,WNW,9.2,-,N/A,,Scattered Clouds,290,2013-09-03 18:35:00
2:55 PM,77.4,59.2,53,30.04,10.0,NW,9.2,-,N/A,,Clear,310,2013-09-03 18:55:00
3:15 PM,77.2,61.7,59,30.04,10.0,NW,11.5,18.4,N/A,,Scattered Clouds,320,2013-09-03 19:15:00
3:35 PM,77.0,60.6,57,30.03,10.0,NW,9.2,-,N/A,,Scattered Clouds,310,2013-09-03 19:35:00
3:55 PM,77.2,59.9,55,30.03,10.0,NW,5.8,-,N/A,,Clear,320,2013-09-03 19:55:00
4:15 PM,77.0,59.9,55,30.03,10.0,NNW,6.9,-,N/A,,Scattered Clouds,330,2013-09-03 20:15:00
4:35 PM,76.3,61.2,59,30.03,10.0,NNW,6.9,10.4,N/A,,Scattered Clouds,330,2013-09-03 20:35:00
4:55 PM,76.1,60.1,57,30.03,10.0,WNW,9.2,-,N/A,,Scattered Clouds,300,2013-09-03 20:55:00
5:15 PM,75.6,60.8,60,30.03,10.0,NNW,12.7,-,N/A,,Scattered Clouds,330,2013-09-03 21:15:00
5:35 PM,74.8,60.1,60,30.03,10.0,NW,6.9,-,N/A,,Mostly Cloudy,320,2013-09-03 21:35:00
5:55 PM,75.2,59.2,57,30.03,10.0,NW,6.9,-,N/A,,Scattered Clouds,320,2013-09-03 21:55:00
6:15 PM,74.3,57.9,57,30.04,10.0,NNW,11.5,-,N/A,,Clear,330,2013-09-03 22:15:00
6:35 PM,73.8,58.6,59,30.05,10.0,NW,6.9,-,N/A,,Clear,320,2013-09-03 22:35:00
6:55 PM,72.9,57.6,59,30.04,10.0,NNW,9.2,-,N/A,,Clear,330,2013-09-03 22:55:00
7:15 PM,72.0,58.3,62,30.05,10.0,NNW,5.8,-,N/A,,Clear,330,2013-09-03 23:15:00
7:35 PM,71.1,59.0,66,30.05,10.0,Calm,Calm,-,N/A,,Clear,0,2013-09-03 23:35:00
7:55 PM,70.2,59.7,69,30.06,10.0,Calm,Calm,-,N/A,,Clear,0,2013-09-03 23:55:00
8:15 PM,69.8,59.9,71,30.07,10.0,Calm,Calm,-,N/A,,Clear,0,2013-09-04 00:15:00
8:35 PM,69.4,59.4,70,30.07,10.0,Calm,Calm,-,N/A,,Clear,0,2013-09-04 00:35:00
8:55 PM,68.5,59.9,74,30.08,10.0,NNE,3.5,-,N/A,,Clear,30,2013-09-04 00:55:00
9:15 PM,69.3,59.4,71,30.09,10.0,Calm,Calm,-,N/A,,Clear,0,2013-09-04 01:15:00
9:35 PM,69.4,59.5,71,30.10,10.0,Calm,Calm,-,N/A,,Clear,0,2013-09-04 01:35:00
9:55 PM,69.1,59.0,70,30.10,10.0,Calm,Calm,-,N/A,,Clear,0,2013-09-04 01:55:00
10:15 PM,66.9,59.5,77,30.11,10.0,Calm,Calm,-,N/A,,Scattered Clouds,0,2013-09-04 02:15:00
10:35 PM,67.8,59.4,74,30.12,10.0,Calm,Calm,-,N/A,,Clear,0,2013-09-04 02:35:00
10:55 PM,66.7,60.3,80,30.12,10.0,Calm,Calm,-,N/A,,Clear,0,2013-09-04 02:55:00
11:15 PM,63.5,61.0,91,30.12,7.0,Calm,Calm,-,N/A,,Clear,0,2013-09-04 03:15:00
11:35 PM,63.1,60.8,92,30.12,7.0,Calm,Calm,-,N/A,,Clear,0,2013-09-04 03:35:00
11:55 PM,62.2,60.1,93,30.12,7.0,Calm,Calm,-,N/A,,Clear,0,2013-09-04 03:55:00